Slave Lake, Canada
Current Conditions -  °F | °C
As of 3:00 PM on Saturday 25 Oct 2014 (Local Time) from CYZH Reporting Station
Scattered Clouds Scattered Clouds  
Wind Chill: 36°   Ceiling: Unl
Heat Index: 41°   Visibility: 9mi
Dew Point: 32°   Wind: 8mph
Humidity: 70%   Direction: 90°E
Pressure: 29.84"   Gusts: NA
Location:  55.27°N, 114.77°W
Report Text: CYZH 252100Z AUTO 09007KT 9SM SCT120 SCT150 05/M00 A2984 RMK SLP127
Loading
Personal Weather Stations






























Interactive Weather Map
Tropical Storm Tracking
New forecast layout! Learn more

10-Day Weather Forecast

Advertisements
Track Severe Weather on mobile